Wetterdaten: Woche 11.07.05 - 17.07.05 (KW28)
Datum Zeit Temperatur Luftfeuchte Luftdruck Niederschlag Windrichtung Wind
11.07.2005 00:00 13,0 C 100 % 1023 hPa 0,0 l/m W 5,9 km/h (2 Bft)
11.07.2005 01:00 13,0 C 100 % 1023 hPa 0,0 l/m NW 3,5 km/h (1 Bft)
11.07.2005 02:00 13,3 C 100 % 1022 hPa 0,0 l/m W-NW 8,1 km/h (2 Bft)
11.07.2005 03:00 13,5 C 100 % 1022 hPa 0,0 l/m O-NO 0,7 km/h (0 Bft)
11.07.2005 04:00 13,3 C 100 % 1022 hPa 0,0 l/m N 0,0 km/h (0 Bft)
11.07.2005 05:00 13,1 C 100 % 1023 hPa 0,0 l/m S 0,1 km/h (0 Bft)
11.07.2005 06:00 12,7 C 100 % 1023 hPa 1,0 l/m N 0,0 km/h (0 Bft)
11.07.2005 07:00 13,3 C 100 % 1023 hPa 1,0 l/m N-NW 5,8 km/h (2 Bft)
11.07.2005 08:00 13,8 C 100 % 1024 hPa 1,0 l/m N-NW 6,5 km/h (2 Bft)
11.07.2005 09:00 14,2 C 100 % 1024 hPa 3,0 l/m N 3,2 km/h (1 Bft)
11.07.2005 10:00 14,8 C 100 % 1025 hPa 1,0 l/m NW 5,2 km/h (1 Bft)
11.07.2005 11:00 15,3 C 100 % 1025 hPa 2,0 l/m W-NW 6,4 km/h (2 Bft)
11.07.2005 12:00 15,7 C 98 % 1024 hPa 0,0 l/m NW 10,7 km/h (2 Bft)
11.07.2005 13:00 17,8 C 87 % 1024 hPa 0,0 l/m W-NW 11,6 km/h (2 Bft)
11.07.2005 14:00 19,7 C 76 % 1024 hPa 4,0 l/m N-NW 11,5 km/h (2 Bft)
11.07.2005 15:00 19,2 C 83 % 1024 hPa 0,0 l/m N-NW 13,9 km/h (3 Bft)
11.07.2005 16:00 20,1 C 71 % 1024 hPa 0,0 l/m N-NW 15,5 km/h (3 Bft)
11.07.2005 17:00 20,9 C 67 % 1024 hPa 0,0 l/m NW 13,7 km/h (3 Bft)
11.07.2005 18:00 19,6 C 74 % 1024 hPa 0,0 l/m N-NW 9,0 km/h (2 Bft)
11.07.2005 19:00 19,7 C 74 % 1024 hPa 0,0 l/m N-NW 5,9 km/h (2 Bft)
11.07.2005 20:00 19,0 C 80 % 1024 hPa 0,0 l/m NW 6,0 km/h (2 Bft)
11.07.2005 21:00 17,8 C 75 % 1025 hPa 0,0 l/m O 10,3 km/h (2 Bft)
11.07.2005 22:00 16,6 C 76 % 1026 hPa 0,0 l/m NO 6,3 km/h (2 Bft)
11.07.2005 23:00 15,4 C 85 % 1025 hPa 0,0 l/m N-NW 3,8 km/h (1 Bft)
12.07.2005 00:00 14,9 C 89 % 1025 hPa 0,0 l/m NW 0,8 km/h (0 Bft)
12.07.2005 01:00 14,6 C 92 % 1025 hPa 0,0 l/m N 0,0 km/h (0 Bft)
12.07.2005 02:00 14,4 C 93 % 1025 hPa 0,0 l/m W 1,1 km/h (1 Bft)
12.07.2005 03:00 14,3 C 94 % 1025 hPa 0,0 l/m N 0,1 km/h (0 Bft)
12.07.2005 04:00 14,3 C 95 % 1025 hPa 0,0 l/m NW 1,0 km/h (0 Bft)
12.07.2005 05:00 14,2 C 95 % 1025 hPa 0,0 l/m NW 0,8 km/h (0 Bft)
12.07.2005 06:00 14,1 C 95 % 1025 hPa 0,0 l/m N 0,0 km/h (0 Bft)
12.07.2005 07:00 14,5 C 96 % 1025 hPa 0,0 l/m N 0,0 km/h (0 Bft)
12.07.2005 08:00 16,0 C 92 % 1025 hPa 0,0 l/m SO 2,0 km/h (1 Bft)
12.07.2005 09:00 18,0 C 75 % 1025 hPa 0,0 l/m NO 13,0 km/h (3 Bft)
12.07.2005 10:00 19,9 C 67 % 1025 hPa 0,0 l/m N-NO 13,0 km/h (3 Bft)
12.07.2005 11:00 21,1 C 61 % 1024 hPa 0,0 l/m O-NO 15,6 km/h (3 Bft)
12.07.2005 12:00 22,8 C 53 % 1024 hPa 0,0 l/m NO 19,2 km/h (3 Bft)
12.07.2005 13:00 23,4 C 49 % 1024 hPa 0,0 l/m O-NO 19,9 km/h (4 Bft)
12.07.2005 14:00 23,4 C 49 % 1024 hPa 0,0 l/m N-NO 15,7 km/h (3 Bft)
12.07.2005 15:00 23,1 C 50 % 1024 hPa 0,0 l/m O-NO 15,0 km/h (3 Bft)
12.07.2005 16:00 23,1 C 49 % 1024 hPa 0,0 l/m N 13,1 km/h (3 Bft)
12.07.2005 17:00 22,9 C 52 % 1023 hPa 0,0 l/m N 12,3 km/h (3 Bft)
12.07.2005 18:00 21,4 C 55 % 1023 hPa 0,0 l/m O-NO 11,8 km/h (2 Bft)
12.07.2005 19:00 21,6 C 52 % 1023 hPa 0,0 l/m O 2,6 km/h (1 Bft)
12.07.2005 20:00 20,2 C 55 % 1024 hPa 0,0 l/m N-NW 10,3 km/h (2 Bft)
12.07.2005 21:00 17,3 C 69 % 1023 hPa 0,0 l/m N 0,0 km/h (0 Bft)
12.07.2005 22:00 15,6 C 77 % 1024 hPa 0,0 l/m NW 2,2 km/h (1 Bft)
12.07.2005 23:00 14,9 C 82 % 1024 hPa 0,0 l/m W-NW 8,9 km/h (2 Bft)
13.07.2005 00:00 14,6 C 82 % 1023 hPa 0,0 l/m NW 0,8 km/h (0 Bft)
13.07.2005 01:00 14,0 C 84 % 1023 hPa 0,0 l/m N 0,0 km/h (0 Bft)
13.07.2005 02:00 13,3 C 88 % 1023 hPa 0,0 l/m N 0,0 km/h (0 Bft)
13.07.2005 03:00 13,1 C 93 % 1023 hPa 0,0 l/m W-NW 1,5 km/h (1 Bft)
13.07.2005 04:00 12,9 C 95 % 1022 hPa 0,0 l/m NW 1,6 km/h (1 Bft)
13.07.2005 05:00 12,7 C 96 % 1022 hPa 0,0 l/m N 0,0 km/h (0 Bft)
13.07.2005 06:00 12,9 C 97 % 1022 hPa 0,0 l/m NW 1,2 km/h (1 Bft)
13.07.2005 07:00 14,3 C 99 % 1022 hPa 0,0 l/m N 4,0 km/h (1 Bft)
13.07.2005 08:00 16,2 C 95 % 1023 hPa 0,0 l/m N 9,1 km/h (2 Bft)
13.07.2005 09:00 19,0 C 76 % 1023 hPa 0,0 l/m N-NO 14,0 km/h (3 Bft)
13.07.2005 10:00 22,0 C 60 % 1022 hPa 0,0 l/m N 14,5 km/h (3 Bft)
13.07.2005 11:00 23,8 C 52 % 1022 hPa 0,0 l/m N-NO 17,9 km/h (3 Bft)
13.07.2005 12:00 24,4 C 47 % 1022 hPa 0,0 l/m NO 19,2 km/h (3 Bft)
13.07.2005 13:00 24,9 C 43 % 1022 hPa 0,0 l/m N-NO 19,4 km/h (3 Bft)
13.07.2005 14:00 25,4 C 41 % 1022 hPa 0,0 l/m N-NO 18,4 km/h (3 Bft)
13.07.2005 15:00 26,3 C 38 % 1022 hPa 0,0 l/m NO 16,3 km/h (3 Bft)
13.07.2005 16:00 26,7 C 37 % 1022 hPa 0,0 l/m NO 10,3 km/h (2 Bft)
13.07.2005 17:00 27,2 C 35 % 1021 hPa 0,0 l/m N-NO 15,3 km/h (3 Bft)
13.07.2005 18:00 26,9 C 36 % 1021 hPa 0,0 l/m N-NO 16,1 km/h (3 Bft)
13.07.2005 19:00 25,5 C 37 % 1021 hPa 0,0 l/m N-NO 13,1 km/h (3 Bft)
13.07.2005 20:00 23,4 C 43 % 1021 hPa 0,0 l/m O-NO 3,9 km/h (1 Bft)
13.07.2005 21:00 20,5 C 56 % 1022 hPa 0,0 l/m N 0,0 km/h (0 Bft)
13.07.2005 22:00 18,1 C 65 % 1022 hPa 0,0 l/m N 0,0 km/h (0 Bft)
13.07.2005 23:00 16,8 C 70 % 1022 hPa 0,0 l/m N 0,0 km/h (0 Bft)
14.07.2005 00:00 15,8 C 74 % 1022 hPa 0,0 l/m W-NW 3,1 km/h (1 Bft)
14.07.2005 01:00 15,2 C 79 % 1022 hPa 0,0 l/m W-NW 0,4 km/h (0 Bft)
14.07.2005 02:00 14,3 C 84 % 1022 hPa 0,0 l/m NW 0,5 km/h (0 Bft)
14.07.2005 03:00 14,2 C 86 % 1022 hPa 0,0 l/m W-NW 5,0 km/h (1 Bft)
14.07.2005 04:00 13,6 C 86 % 1021 hPa 0,0 l/m N 0,0 km/h (0 Bft)
14.07.2005 05:00 12,7 C 89 % 1021 hPa 0,0 l/m N 0,0 km/h (0 Bft)
14.07.2005 06:00 12,2 C 91 % 1022 hPa 0,0 l/m N 0,0 km/h (0 Bft)
14.07.2005 07:00 13,8 C 94 % 1022 hPa 0,0 l/m N 0,0 km/h (0 Bft)
14.07.2005 08:00 16,4 C 86 % 1022 hPa 0,0 l/m N 0,0 km/h (0 Bft)
14.07.2005 09:00 19,3 C 68 % 1022 hPa 0,0 l/m O-NO 1,0 km/h (0 Bft)
14.07.2005 10:00 23,1 C 52 % 1022 hPa 0,0 l/m NO 3,3 km/h (1 Bft)
14.07.2005 11:00 25,7 C 44 % 1022 hPa 0,0 l/m O-SO 8,3 km/h (2 Bft)
14.07.2005 12:00 27,2 C 35 % 1022 hPa 0,0 l/m O 12,3 km/h (3 Bft)
14.07.2005 13:00 27,4 C 33 % 1022 hPa 0,0 l/m NO 12,5 km/h (3 Bft)
14.07.2005 14:00 28,4 C 32 % 1022 hPa 0,0 l/m O 13,8 km/h (3 Bft)
14.07.2005 15:00 28,7 C 31 % 1021 hPa 0,0 l/m N 11,8 km/h (2 Bft)
14.07.2005 16:00 28,6 C 31 % 1021 hPa 0,0 l/m O 9,7 km/h (2 Bft)
14.07.2005 17:00 29,3 C 29 % 1021 hPa 0,0 l/m O 7,3 km/h (2 Bft)
14.07.2005 18:00 29,7 C 28 % 1020 hPa 0,0 l/m O 4,6 km/h (1 Bft)
14.07.2005 19:00 28,3 C 30 % 1020 hPa 0,0 l/m O-NO 8,1 km/h (2 Bft)
14.07.2005 20:00 24,7 C 43 % 1020 hPa 0,0 l/m N 0,0 km/h (0 Bft)
14.07.2005 21:00 21,3 C 50 % 1020 hPa 0,0 l/m N 0,0 km/h (0 Bft)
14.07.2005 22:00 19,4 C 56 % 1021 hPa 0,0 l/m N 0,0 km/h (0 Bft)
14.07.2005 23:00 17,8 C 65 % 1021 hPa 0,0 l/m N 0,0 km/h (0 Bft)
15.07.2005 00:00 16,3 C 71 % 1021 hPa 0,0 l/m N 0,0 km/h (0 Bft)
15.07.2005 01:00 15,3 C 76 % 1021 hPa 0,0 l/m N 0,0 km/h (0 Bft)
15.07.2005 02:00 14,5 C 80 % 1020 hPa 0,0 l/m N 0,0 km/h (0 Bft)
15.07.2005 03:00 13,6 C 84 % 1020 hPa 0,0 l/m N 0,0 km/h (0 Bft)
15.07.2005 04:00 12,8 C 88 % 1020 hPa 0,0 l/m N 0,0 km/h (0 Bft)
15.07.2005 05:00 12,1 C 91 % 1020 hPa 0,0 l/m N 0,0 km/h (0 Bft)
15.07.2005 06:00 12,1 C 93 % 1019 hPa 0,0 l/m N 0,0 km/h (0 Bft)
15.07.2005 07:00 13,5 C 95 % 1020 hPa 0,0 l/m N 0,0 km/h (0 Bft)
15.07.2005 08:00 16,4 C 85 % 1020 hPa 0,0 l/m SO 6,4 km/h (2 Bft)
15.07.2005 09:00 19,8 C 64 % 1020 hPa 0,0 l/m S 12,7 km/h (3 Bft)
15.07.2005 10:00 22,8 C 53 % 1020 hPa 0,0 l/m S-SW 13,6 km/h (3 Bft)
15.07.2005 11:00 24,9 C 51 % 1020 hPa 0,0 l/m S-SW 13,4 km/h (3 Bft)
15.07.2005 12:00 24,9 C 48 % 1020 hPa 0,0 l/m SW 15,0 km/h (3 Bft)
15.07.2005 13:00 26,9 C 43 % 1019 hPa 0,0 l/m S-SW 14,3 km/h (3 Bft)
15.07.2005 14:00 27,7 C 41 % 1019 hPa 0,0 l/m W-SW 15,6 km/h (3 Bft)
15.07.2005 15:00 27,8 C 40 % 1018 hPa 0,0 l/m W-SW 14,0 km/h (3 Bft)
15.07.2005 16:00 26,1 C 50 % 1018 hPa 0,0 l/m W-SW 8,1 km/h (2 Bft)
15.07.2005 17:00 28,0 C 43 % 1017 hPa 0,0 l/m W 8,6 km/h (2 Bft)
15.07.2005 18:00 28,7 C 35 % 1017 hPa 0,0 l/m W-SW 14,6 km/h (3 Bft)
15.07.2005 19:00 27,4 C 38 % 1017 hPa 0,0 l/m W-SW 10,7 km/h (2 Bft)
15.07.2005 20:00 25,3 C 45 % 1017 hPa 0,0 l/m W-SW 7,3 km/h (2 Bft)
15.07.2005 21:00 22,6 C 55 % 1018 hPa 0,0 l/m W-SW 5,9 km/h (2 Bft)
15.07.2005 22:00 20,9 C 59 % 1018 hPa 0,0 l/m W-SW 6,7 km/h (2 Bft)
15.07.2005 23:00 20,2 C 63 % 1018 hPa 0,0 l/m S 1,2 km/h (1 Bft)
16.07.2005 00:00 18,3 C 73 % 1018 hPa 0,0 l/m N 0,0 km/h (0 Bft)
16.07.2005 01:00 17,5 C 77 % 1018 hPa 0,0 l/m N 0,0 km/h (0 Bft)
16.07.2005 02:00 17,0 C 81 % 1018 hPa 0,0 l/m N 0,0 km/h (0 Bft)
16.07.2005 03:00 16,6 C 84 % 1017 hPa 0,0 l/m N 0,0 km/h (0 Bft)
16.07.2005 04:00 16,1 C 86 % 1017 hPa 0,0 l/m N 0,0 km/h (0 Bft)
16.07.2005 05:00 16,5 C 87 % 1017 hPa 0,0 l/m N 0,0 km/h (0 Bft)
16.07.2005 06:00 16,9 C 85 % 1016 hPa 0,0 l/m O-NO 4,6 km/h (1 Bft)
16.07.2005 07:00 18,8 C 78 % 1017 hPa 0,0 l/m S-SW 1,2 km/h (1 Bft)
16.07.2005 08:00 19,5 C 76 % 1017 hPa 0,0 l/m S 5,5 km/h (1 Bft)
16.07.2005 09:00 20,9 C 71 % 1017 hPa 0,0 l/m S-SW 10,8 km/h (2 Bft)
16.07.2005 10:00 21,2 C 70 % 1017 hPa 0,0 l/m W-SW 11,2 km/h (2 Bft)
16.07.2005 11:00 22,1 C 70 % 1017 hPa 0,0 l/m S 12,8 km/h (3 Bft)
16.07.2005 12:00 25,0 C 56 % 1017 hPa 0,0 l/m W-SW 12,9 km/h (3 Bft)
16.07.2005 13:00 25,1 C 48 % 1017 hPa 0,0 l/m S-SW 21,1 km/h (4 Bft)
16.07.2005 14:00 22,3 C 62 % 1017 hPa 0,0 l/m S 6,0 km/h (2 Bft)
16.07.2005 15:00 22,5 C 65 % 1017 hPa 0,0 l/m S-SW 8,9 km/h (2 Bft)
16.07.2005 16:00 23,0 C 63 % 1016 hPa 0,0 l/m S-SW 15,0 km/h (3 Bft)
16.07.2005 17:00 22,7 C 67 % 1016 hPa 0,0 l/m S-SW 7,2 km/h (2 Bft)
16.07.2005 18:00 22,9 C 69 % 1016 hPa 0,0 l/m S 8,0 km/h (2 Bft)
16.07.2005 19:00 23,0 C 69 % 1016 hPa 0,0 l/m S-SW 11,7 km/h (2 Bft)
16.07.2005 20:00 21,6 C 71 % 1016 hPa 0,0 l/m S-SW 13,2 km/h (3 Bft)
16.07.2005 21:00 20,8 C 73 % 1016 hPa 0,0 l/m S-SW 8,6 km/h (2 Bft)
16.07.2005 22:00 20,4 C 75 % 1017 hPa 0,0 l/m S-SW 10,1 km/h (2 Bft)
16.07.2005 23:00 20,2 C 79 % 1017 hPa 0,0 l/m S-SW 7,6 km/h (2 Bft)
17.07.2005 00:00 19,4 C 83 % 1017 hPa 0,0 l/m N 0,2 km/h (0 Bft)
17.07.2005 01:00 18,8 C 86 % 1017 hPa 0,0 l/m N 0,0 km/h (0 Bft)
17.07.2005 02:00 17,9 C 90 % 1017 hPa 0,0 l/m N 0,0 km/h (0 Bft)
17.07.2005 03:00 17,5 C 92 % 1017 hPa 0,0 l/m N 0,0 km/h (0 Bft)
17.07.2005 04:00 16,5 C 93 % 1017 hPa 0,0 l/m N 0,0 km/h (0 Bft)
17.07.2005 05:00 15,8 C 95 % 1017 hPa 0,0 l/m N 0,0 km/h (0 Bft)
17.07.2005 06:00 15,7 C 96 % 1017 hPa 0,0 l/m N 0,0 km/h (0 Bft)
17.07.2005 07:00 16,7 C 98 % 1017 hPa 0,0 l/m S-SW 1,1 km/h (1 Bft)
17.07.2005 08:00 18,8 C 97 % 1017 hPa 0,0 l/m S-SO 2,5 km/h (1 Bft)
17.07.2005 09:00 21,7 C 76 % 1017 hPa 0,0 l/m W-SW 10,0 km/h (2 Bft)
17.07.2005 10:00 24,4 C 49 % 1017 hPa 0,0 l/m W-SW 12,2 km/h (2 Bft)
17.07.2005 11:00 26,1 C 41 % 1017 hPa 0,0 l/m W-SW 12,0 km/h (2 Bft)
17.07.2005 12:00 27,2 C 37 % 1017 hPa 0,0 l/m S 12,0 km/h (2 Bft)
17.07.2005 13:00 27,9 C 35 % 1017 hPa 0,0 l/m W 11,0 km/h (2 Bft)
17.07.2005 14:00 28,4 C 36 % 1017 hPa 0,0 l/m S 12,9 km/h (3 Bft)
17.07.2005 15:00 29,0 C 34 % 1016 hPa 0,0 l/m S 7,7 km/h (2 Bft)
17.07.2005 16:00 29,3 C 33 % 1016 hPa 0,0 l/m S-SW 9,7 km/h (2 Bft)
17.07.2005 17:00 29,5 C 33 % 1015 hPa 0,0 l/m S 7,8 km/h (2 Bft)
17.07.2005 18:00 29,2 C 33 % 1015 hPa 0,0 l/m S-SW 1,4 km/h (1 Bft)
17.07.2005 19:00 28,0 C 36 % 1015 hPa 0,0 l/m W-SW 1,7 km/h (1 Bft)
17.07.2005 20:00 25,4 C 46 % 1015 hPa 0,0 l/m N 0,0 km/h (0 Bft)
17.07.2005 21:00 22,6 C 56 % 1015 hPa 0,0 l/m NW 0,7 km/h (0 Bft)
17.07.2005 22:00 20,5 C 61 % 1015 hPa 0,0 l/m NW 1,7 km/h (1 Bft)
17.07.2005 23:00 19,4 C 62 % 1015 hPa 0,0 l/m W-NW 0,1 km/h (0 Bft)
Min-Datum _ 15.07.05 14.07.05 16.07.05 - - 11.07.05
_ Min-Zeit 05:56 17:58 19:30 - - 00:19
Minimum _ 11,8 C 26 % 1015 hPa - - 0,0 km/h (0 Bft)
Max-Datum _ 14.07.05 11.07.05 11.07.05 11.07.05 - 16.07.05
_ Max-Zeit 18:18 00:00 22:00 14:48 - 13:39
Maximum _ 30,2 C 100 % 1026 hPa 4,0 l/m - 37,8 km/h
S-SW (5 Bft)
Durchschnitt _ 19,9 C 69 % 1021 hPa #13,0 l/m W-SW 6,5 km/h (2 Bft)

Durchschnitt Minimum Temp.19,3 C
Durchschnitt Maximum Temp.20,5 C